sensor_id;sensor_type;location;lat;lon;timestamp;P1;durP1;ratioP1;P2;durP2;ratioP2
6939;SDS011;3509;48.510;9.076;2022-08-21T00:01:59;12.55;;;10.77;;
6939;SDS011;3509;48.510;9.076;2022-08-21T00:04:24;12.52;;;10.45;;
6939;SDS011;3509;48.510;9.076;2022-08-21T00:06:51;16.25;;;10.95;;
6939;SDS011;3509;48.510;9.076;2022-08-21T00:09:17;18.52;;;11.32;;
6939;SDS011;3509;48.510;9.076;2022-08-21T00:11:44;13.88;;;10.95;;
6939;SDS011;3509;48.510;9.076;2022-08-21T00:14:10;24.27;;;12.40;;
6939;SDS011;3509;48.510;9.076;2022-08-21T00:16:36;15.38;;;11.02;;
6939;SDS011;3509;48.510;9.076;2022-08-21T00:19:03;12.95;;;10.40;;
6939;SDS011;3509;48.510;9.076;2022-08-21T00:21:30;21.10;;;10.90;;
6939;SDS011;3509;48.510;9.076;2022-08-21T00:23:56;19.67;;;11.55;;
6939;SDS011;3509;48.510;9.076;2022-08-21T00:26:22;19.55;;;11.90;;
6939;SDS011;3509;48.510;9.076;2022-08-21T00:28:48;16.23;;;11.40;;
6939;SDS011;3509;48.510;9.076;2022-08-21T00:31:14;18.27;;;11.95;;
6939;SDS011;3509;48.510;9.076;2022-08-21T00:33:40;18.55;;;12.18;;
6939;SDS011;3509;48.510;9.076;2022-08-21T00:36:06;15.88;;;11.98;;
6939;SDS011;3509;48.510;9.076;2022-08-21T00:38:32;21.38;;;13.80;;
6939;SDS011;3509;48.510;9.076;2022-08-21T00:40:59;18.25;;;12.13;;
6939;SDS011;3509;48.510;9.076;2022-08-21T00:43:29;20.63;;;11.93;;
6939;SDS011;3509;48.510;9.076;2022-08-21T00:45:56;18.55;;;12.27;;
6939;SDS011;3509;48.510;9.076;2022-08-21T00:48:23;14.98;;;12.23;;
6939;SDS011;3509;48.510;9.076;2022-08-21T00:50:54;19.67;;;12.65;;
6939;SDS011;3509;48.510;9.076;2022-08-21T00:53:23;21.88;;;11.77;;
6939;SDS011;3509;48.510;9.076;2022-08-21T00:55:50;21.52;;;13.00;;
6939;SDS011;3509;48.510;9.076;2022-08-21T00:58:18;18.38;;;11.95;;
6939;SDS011;3509;48.510;9.076;2022-08-21T01:00:46;20.75;;;12.23;;
6939;SDS011;3509;48.510;9.076;2022-08-21T01:03:15;17.67;;;12.38;;
6939;SDS011;3509;48.510;9.076;2022-08-21T01:05:43;20.00;;;12.68;;
6939;SDS011;3509;48.510;9.076;2022-08-21T01:08:10;22.00;;;12.68;;
6939;SDS011;3509;48.510;9.076;2022-08-21T01:10:37;20.17;;;13.00;;
6939;SDS011;3509;48.510;9.076;2022-08-21T01:13:04;25.35;;;13.30;;
6939;SDS011;3509;48.510;9.076;2022-08-21T01:15:33;26.15;;;13.75;;
6939;SDS011;3509;48.510;9.076;2022-08-21T01:18:03;20.85;;;13.93;;
6939;SDS011;3509;48.510;9.076;2022-08-21T01:20:32;21.17;;;13.73;;
6939;SDS011;3509;48.510;9.076;2022-08-21T01:23:00;15.00;;;12.27;;
6939;SDS011;3509;48.510;9.076;2022-08-21T01:25:26;19.48;;;12.35;;
6939;SDS011;3509;48.510;9.076;2022-08-21T01:27:52;19.50;;;13.05;;
6939;SDS011;3509;48.510;9.076;2022-08-21T01:30:20;19.77;;;14.30;;
6939;SDS011;3509;48.510;9.076;2022-08-21T01:32:49;23.17;;;15.35;;
6939;SDS011;3509;48.510;9.076;2022-08-21T01:35:16;23.17;;;14.23;;
6939;SDS011;3509;48.510;9.076;2022-08-21T01:37:43;21.15;;;15.13;;
6939;SDS011;3509;48.510;9.076;2022-08-21T01:40:10;26.02;;;15.15;;
6939;SDS011;3509;48.510;9.076;2022-08-21T01:42:36;33.17;;;16.45;;
6939;SDS011;3509;48.510;9.076;2022-08-21T01:45:03;31.13;;;15.40;;
6939;SDS011;3509;48.510;9.076;2022-08-21T01:47:30;20.20;;;13.55;;
6939;SDS011;3509;48.510;9.076;2022-08-21T01:49:56;20.92;;;13.82;;
6939;SDS011;3509;48.510;9.076;2022-08-21T01:52:21;24.27;;;15.10;;
6939;SDS011;3509;48.510;9.076;2022-08-21T01:54:47;24.73;;;15.00;;
6939;SDS011;3509;48.510;9.076;2022-08-21T01:57:13;19.85;;;13.15;;
6939;SDS011;3509;48.510;9.076;2022-08-21T01:59:39;22.77;;;15.05;;
6939;SDS011;3509;48.510;9.076;2022-08-21T02:02:05;25.55;;;14.40;;
6939;SDS011;3509;48.510;9.076;2022-08-21T02:04:31;23.70;;;14.48;;
6939;SDS011;3509;48.510;9.076;2022-08-21T02:06:57;16.83;;;12.18;;
6939;SDS011;3509;48.510;9.076;2022-08-21T02:09:25;26.38;;;14.68;;
6939;SDS011;3509;48.510;9.076;2022-08-21T02:11:50;28.33;;;16.08;;
6939;SDS011;3509;48.510;9.076;2022-08-21T02:14:17;26.13;;;15.20;;
6939;SDS011;3509;48.510;9.076;2022-08-21T02:16:43;33.10;;;16.10;;
6939;SDS011;3509;48.510;9.076;2022-08-21T02:19:10;27.75;;;15.23;;
6939;SDS011;3509;48.510;9.076;2022-08-21T02:21:37;25.40;;;14.35;;
6939;SDS011;3509;48.510;9.076;2022-08-21T02:24:04;27.05;;;15.93;;
6939;SDS011;3509;48.510;9.076;2022-08-21T02:26:30;28.35;;;16.17;;
6939;SDS011;3509;48.510;9.076;2022-08-21T02:28:56;25.75;;;15.30;;
6939;SDS011;3509;48.510;9.076;2022-08-21T02:31:21;28.05;;;14.95;;
6939;SDS011;3509;48.510;9.076;2022-08-21T02:33:47;27.75;;;15.18;;
6939;SDS011;3509;48.510;9.076;2022-08-21T02:36:13;23.77;;;14.15;;
6939;SDS011;3509;48.510;9.076;2022-08-21T02:38:39;26.85;;;16.25;;
6939;SDS011;3509;48.510;9.076;2022-08-21T02:41:08;21.60;;;14.00;;
6939;SDS011;3509;48.510;9.076;2022-08-21T02:43:41;22.35;;;15.50;;
6939;SDS011;3509;48.510;9.076;2022-08-21T02:46:08;31.38;;;16.58;;
6939;SDS011;3509;48.510;9.076;2022-08-21T02:48:35;25.75;;;16.45;;
6939;SDS011;3509;48.510;9.076;2022-08-21T02:51:09;27.05;;;15.60;;
6939;SDS011;3509;48.510;9.076;2022-08-21T02:53:37;28.23;;;16.75;;
6939;SDS011;3509;48.510;9.076;2022-08-21T02:56:05;29.55;;;15.48;;
6939;SDS011;3509;48.510;9.076;2022-08-21T02:58:33;30.05;;;16.83;;
6939;SDS011;3509;48.510;9.076;2022-08-21T03:01:01;26.77;;;16.15;;
6939;SDS011;3509;48.510;9.076;2022-08-21T03:03:28;26.13;;;15.63;;
6939;SDS011;3509;48.510;9.076;2022-08-21T03:05:54;26.55;;;15.52;;
6939;SDS011;3509;48.510;9.076;2022-08-21T03:08:20;28.98;;;16.73;;
6939;SDS011;3509;48.510;9.076;2022-08-21T03:10:47;27.25;;;16.40;;
6939;SDS011;3509;48.510;9.076;2022-08-21T03:13:16;21.98;;;14.48;;
6939;SDS011;3509;48.510;9.076;2022-08-21T03:15:43;24.33;;;15.13;;
6939;SDS011;3509;48.510;9.076;2022-08-21T03:18:09;30.80;;;15.57;;
6939;SDS011;3509;48.510;9.076;2022-08-21T03:20:36;33.05;;;17.95;;
6939;SDS011;3509;48.510;9.076;2022-08-21T03:23:03;31.52;;;16.42;;
6939;SDS011;3509;48.510;9.076;2022-08-21T03:25:30;21.30;;;14.77;;
6939;SDS011;3509;48.510;9.076;2022-08-21T03:27:58;25.60;;;15.65;;
6939;SDS011;3509;48.510;9.076;2022-08-21T03:30:25;26.65;;;15.82;;
6939;SDS011;3509;48.510;9.076;2022-08-21T03:32:50;27.10;;;16.08;;
6939;SDS011;3509;48.510;9.076;2022-08-21T03:35:17;31.65;;;16.67;;
6939;SDS011;3509;48.510;9.076;2022-08-21T03:37:43;27.38;;;16.58;;
6939;SDS011;3509;48.510;9.076;2022-08-21T03:40:10;26.42;;;17.17;;
6939;SDS011;3509;48.510;9.076;2022-08-21T03:42:37;40.55;;;18.30;;
6939;SDS011;3509;48.510;9.076;2022-08-21T03:45:03;32.60;;;17.85;;
6939;SDS011;3509;48.510;9.076;2022-08-21T03:47:30;30.23;;;17.00;;
6939;SDS011;3509;48.510;9.076;2022-08-21T03:49:56;31.63;;;16.60;;
6939;SDS011;3509;48.510;9.076;2022-08-21T03:52:21;29.83;;;17.08;;
6939;SDS011;3509;48.510;9.076;2022-08-21T03:54:48;27.38;;;16.67;;
6939;SDS011;3509;48.510;9.076;2022-08-21T03:57:15;27.40;;;17.40;;
6939;SDS011;3509;48.510;9.076;2022-08-21T03:59:40;28.73;;;16.35;;
6939;SDS011;3509;48.510;9.076;2022-08-21T04:02:09;33.22;;;16.75;;
6939;SDS011;3509;48.510;9.076;2022-08-21T04:04:35;27.27;;;16.38;;
6939;SDS011;3509;48.510;9.076;2022-08-21T04:07:02;30.42;;;16.33;;
6939;SDS011;3509;48.510;9.076;2022-08-21T04:09:28;20.88;;;14.55;;
6939;SDS011;3509;48.510;9.076;2022-08-21T04:11:55;26.25;;;15.98;;
6939;SDS011;3509;48.510;9.076;2022-08-21T04:14:21;22.95;;;15.70;;
6939;SDS011;3509;48.510;9.076;2022-08-21T04:16:47;27.70;;;15.93;;
6939;SDS011;3509;48.510;9.076;2022-08-21T04:19:13;32.53;;;16.77;;
6939;SDS011;3509;48.510;9.076;2022-08-21T04:21:39;28.27;;;17.00;;
6939;SDS011;3509;48.510;9.076;2022-08-21T04:24:06;40.22;;;18.48;;
6939;SDS011;3509;48.510;9.076;2022-08-21T04:26:36;29.30;;;16.52;;
6939;SDS011;3509;48.510;9.076;2022-08-21T04:29:03;29.35;;;17.10;;
6939;SDS011;3509;48.510;9.076;2022-08-21T04:31:31;19.43;;;13.10;;
6939;SDS011;3509;48.510;9.076;2022-08-21T04:33:58;22.37;;;15.37;;
6939;SDS011;3509;48.510;9.076;2022-08-21T04:36:24;34.58;;;18.33;;
6939;SDS011;3509;48.510;9.076;2022-08-21T04:38:50;27.35;;;17.27;;
6939;SDS011;3509;48.510;9.076;2022-08-21T04:41:16;23.27;;;15.43;;
6939;SDS011;3509;48.510;9.076;2022-08-21T04:43:42;32.55;;;17.92;;
6939;SDS011;3509;48.510;9.076;2022-08-21T04:46:08;29.77;;;17.10;;
6939;SDS011;3509;48.510;9.076;2022-08-21T04:48:33;34.63;;;17.70;;
6939;SDS011;3509;48.510;9.076;2022-08-21T04:51:01;25.90;;;16.83;;
6939;SDS011;3509;48.510;9.076;2022-08-21T04:53:38;30.02;;;17.63;;
6939;SDS011;3509;48.510;9.076;2022-08-21T04:56:28;28.85;;;17.73;;
6939;SDS011;3509;48.510;9.076;2022-08-21T04:58:56;30.88;;;17.35;;
6939;SDS011;3509;48.510;9.076;2022-08-21T05:01:25;25.02;;;14.70;;
6939;SDS011;3509;48.510;9.076;2022-08-21T05:03:53;24.42;;;16.98;;
6939;SDS011;3509;48.510;9.076;2022-08-21T05:06:21;28.42;;;17.33;;
6939;SDS011;3509;48.510;9.076;2022-08-21T05:08:49;28.60;;;18.77;;
6939;SDS011;3509;48.510;9.076;2022-08-21T05:11:17;25.05;;;16.85;;
6939;SDS011;3509;48.510;9.076;2022-08-21T05:13:45;27.83;;;17.95;;
6939;SDS011;3509;48.510;9.076;2022-08-21T05:16:11;27.88;;;17.65;;
6939;SDS011;3509;48.510;9.076;2022-08-21T05:18:37;26.50;;;17.08;;
6939;SDS011;3509;48.510;9.076;2022-08-21T05:21:02;22.02;;;15.93;;
6939;SDS011;3509;48.510;9.076;2022-08-21T05:23:29;26.35;;;16.85;;
6939;SDS011;3509;48.510;9.076;2022-08-21T05:25:54;30.85;;;18.17;;
6939;SDS011;3509;48.510;9.076;2022-08-21T05:28:20;26.30;;;16.58;;
6939;SDS011;3509;48.510;9.076;2022-08-21T05:30:46;27.42;;;16.23;;
6939;SDS011;3509;48.510;9.076;2022-08-21T05:33:12;24.02;;;15.90;;
6939;SDS011;3509;48.510;9.076;2022-08-21T05:35:38;23.45;;;15.20;;
6939;SDS011;3509;48.510;9.076;2022-08-21T05:38:04;24.25;;;13.57;;
6939;SDS011;3509;48.510;9.076;2022-08-21T05:40:30;19.13;;;13.88;;
6939;SDS011;3509;48.510;9.076;2022-08-21T05:42:57;16.88;;;12.50;;
6939;SDS011;3509;48.510;9.076;2022-08-21T05:45:25;15.88;;;12.35;;
6939;SDS011;3509;48.510;9.076;2022-08-21T05:47:53;16.63;;;12.80;;
6939;SDS011;3509;48.510;9.076;2022-08-21T05:50:19;17.27;;;13.15;;
6939;SDS011;3509;48.510;9.076;2022-08-21T05:52:45;14.02;;;10.25;;
6939;SDS011;3509;48.510;9.076;2022-08-21T05:55:10;18.23;;;12.40;;
6939;SDS011;3509;48.510;9.076;2022-08-21T05:57:36;14.43;;;11.45;;
6939;SDS011;3509;48.510;9.076;2022-08-21T06:00:03;11.55;;;10.23;;
6939;SDS011;3509;48.510;9.076;2022-08-21T06:02:29;15.35;;;10.38;;
6939;SDS011;3509;48.510;9.076;2022-08-21T06:04:56;16.95;;;9.82;;
6939;SDS011;3509;48.510;9.076;2022-08-21T06:07:21;9.85;;;8.88;;
6939;SDS011;3509;48.510;9.076;2022-08-21T06:09:47;11.50;;;8.90;;
6939;SDS011;3509;48.510;9.076;2022-08-21T06:12:13;7.90;;;7.03;;
6939;SDS011;3509;48.510;9.076;2022-08-21T06:14:40;8.50;;;5.40;;
6939;SDS011;3509;48.510;9.076;2022-08-21T06:17:07;5.97;;;4.30;;
6939;SDS011;3509;48.510;9.076;2022-08-21T06:19:35;185.30;;;11.70;;
6939;SDS011;3509;48.510;9.076;2022-08-21T06:22:00;718.47;;;47.40;;
6939;SDS011;3509;48.510;9.076;2022-08-21T06:24:27;394.10;;;24.80;;
6939;SDS011;3509;48.510;9.076;2022-08-21T06:26:53;3.97;;;2.80;;
6939;SDS011;3509;48.510;9.076;2022-08-21T06:29:19;9.13;;;2.47;;
6939;SDS011;3509;48.510;9.076;2022-08-21T06:31:46;39.33;;;4.15;;
6939;SDS011;3509;48.510;9.076;2022-08-21T06:34:14;7.75;;;2.65;;
6939;SDS011;3509;48.510;9.076;2022-08-21T06:36:40;6.93;;;2.60;;
6939;SDS011;3509;48.510;9.076;2022-08-21T06:39:06;7.97;;;2.60;;
6939;SDS011;3509;48.510;9.076;2022-08-21T06:41:31;3.92;;;2.33;;
6939;SDS011;3509;48.510;9.076;2022-08-21T06:43:57;4.25;;;2.65;;
6939;SDS011;3509;48.510;9.076;2022-08-21T06:46:24;2.67;;;2.20;;
6939;SDS011;3509;48.510;9.076;2022-08-21T06:48:51;4.13;;;2.00;;
6939;SDS011;3509;48.510;9.076;2022-08-21T06:51:16;4.07;;;2.00;;
6939;SDS011;3509;48.510;9.076;2022-08-21T06:53:43;6.15;;;2.05;;
6939;SDS011;3509;48.510;9.076;2022-08-21T06:56:08;2.22;;;2.05;;
6939;SDS011;3509;48.510;9.076;2022-08-21T06:58:34;3.13;;;2.20;;
6939;SDS011;3509;48.510;9.076;2022-08-21T07:01:00;3.50;;;2.25;;
6939;SDS011;3509;48.510;9.076;2022-08-21T07:03:31;3.90;;;2.33;;
6939;SDS011;3509;48.510;9.076;2022-08-21T07:05:58;5.53;;;2.30;;
6939;SDS011;3509;48.510;9.076;2022-08-21T07:08:25;4.63;;;2.30;;
6939;SDS011;3509;48.510;9.076;2022-08-21T07:10:52;4.55;;;2.33;;
6939;SDS011;3509;48.510;9.076;2022-08-21T07:13:19;4.20;;;2.22;;
6939;SDS011;3509;48.510;9.076;2022-08-21T07:15:45;3.75;;;2.30;;
6939;SDS011;3509;48.510;9.076;2022-08-21T07:18:11;2.60;;;2.05;;
6939;SDS011;3509;48.510;9.076;2022-08-21T07:20:38;2.13;;;1.92;;
6939;SDS011;3509;48.510;9.076;2022-08-21T07:23:05;3.40;;;2.13;;
6939;SDS011;3509;48.510;9.076;2022-08-21T07:25:33;3.35;;;2.28;;
6939;SDS011;3509;48.510;9.076;2022-08-21T07:28:00;3.33;;;2.08;;
6939;SDS011;3509;48.510;9.076;2022-08-21T07:30:26;6.28;;;2.10;;
6939;SDS011;3509;48.510;9.076;2022-08-21T07:32:52;3.20;;;1.98;;
6939;SDS011;3509;48.510;9.076;2022-08-21T07:35:18;3.67;;;2.10;;
6939;SDS011;3509;48.510;9.076;2022-08-21T07:37:44;5.22;;;2.45;;
6939;SDS011;3509;48.510;9.076;2022-08-21T07:40:10;4.75;;;2.10;;
6939;SDS011;3509;48.510;9.076;2022-08-21T07:42:43;2.50;;;2.10;;
6939;SDS011;3509;48.510;9.076;2022-08-21T07:45:11;3.55;;;2.08;;
6939;SDS011;3509;48.510;9.076;2022-08-21T07:47:37;6.68;;;2.40;;
6939;SDS011;3509;48.510;9.076;2022-08-21T07:50:04;3.97;;;1.98;;
6939;SDS011;3509;48.510;9.076;2022-08-21T07:52:31;4.75;;;2.08;;
6939;SDS011;3509;48.510;9.076;2022-08-21T07:54:57;4.85;;;2.10;;
6939;SDS011;3509;48.510;9.076;2022-08-21T07:57:23;4.07;;;2.20;;
6939;SDS011;3509;48.510;9.076;2022-08-21T07:59:48;5.63;;;2.53;;
6939;SDS011;3509;48.510;9.076;2022-08-21T08:02:28;5.38;;;2.17;;
6939;SDS011;3509;48.510;9.076;2022-08-21T08:04:58;4.25;;;2.33;;
6939;SDS011;3509;48.510;9.076;2022-08-21T08:07:25;5.63;;;2.40;;
6939;SDS011;3509;48.510;9.076;2022-08-21T08:09:51;4.90;;;2.60;;
6939;SDS011;3509;48.510;9.076;2022-08-21T08:12:17;5.93;;;2.40;;
6939;SDS011;3509;48.510;9.076;2022-08-21T08:14:43;6.10;;;2.30;;
6939;SDS011;3509;48.510;9.076;2022-08-21T08:17:09;5.82;;;2.40;;
6939;SDS011;3509;48.510;9.076;2022-08-21T08:19:35;6.38;;;2.67;;
6939;SDS011;3509;48.510;9.076;2022-08-21T08:22:01;4.88;;;2.58;;
6939;SDS011;3509;48.510;9.076;2022-08-21T08:24:26;5.30;;;2.47;;
6939;SDS011;3509;48.510;9.076;2022-08-21T08:26:52;5.47;;;2.60;;
6939;SDS011;3509;48.510;9.076;2022-08-21T08:29:19;4.53;;;2.63;;
6939;SDS011;3509;48.510;9.076;2022-08-21T08:31:47;6.20;;;2.33;;
6939;SDS011;3509;48.510;9.076;2022-08-21T08:34:12;3.40;;;2.30;;
6939;SDS011;3509;48.510;9.076;2022-08-21T08:36:38;5.03;;;2.63;;
6939;SDS011;3509;48.510;9.076;2022-08-21T08:39:04;5.05;;;2.75;;
6939;SDS011;3509;48.510;9.076;2022-08-21T08:41:30;5.70;;;2.60;;
6939;SDS011;3509;48.510;9.076;2022-08-21T08:44:03;5.13;;;3.03;;
6939;SDS011;3509;48.510;9.076;2022-08-21T08:49:09;5.88;;;3.15;;
6939;SDS011;3509;48.510;9.076;2022-08-21T08:54:33;6.68;;;3.47;;
6939;SDS011;3509;48.510;9.076;2022-08-21T08:57:07;7.75;;;3.17;;
6939;SDS011;3509;48.510;9.076;2022-08-21T08:59:43;5.50;;;3.50;;
6939;SDS011;3509;48.510;9.076;2022-08-21T09:02:14;5.47;;;3.00;;
6939;SDS011;3509;48.510;9.076;2022-08-21T09:04:41;4.28;;;2.72;;
6939;SDS011;3509;48.510;9.076;2022-08-21T09:07:16;5.22;;;2.90;;
6939;SDS011;3509;48.510;9.076;2022-08-21T09:15:43;9.70;;;3.55;;
6939;SDS011;3509;48.510;9.076;2022-08-21T09:18:24;7.45;;;3.85;;
6939;SDS011;3509;48.510;9.076;2022-08-21T09:26:30;6.57;;;3.05;;
6939;SDS011;3509;48.510;9.076;2022-08-21T09:29:07;5.25;;;3.13;;
6939;SDS011;3509;48.510;9.076;2022-08-21T09:31:36;6.35;;;2.80;;
6939;SDS011;3509;48.510;9.076;2022-08-21T09:36:44;6.78;;;3.35;;
6939;SDS011;3509;48.510;9.076;2022-08-21T09:39:22;5.72;;;3.35;;
6939;SDS011;3509;48.510;9.076;2022-08-21T09:41:54;5.32;;;3.28;;
6939;SDS011;3509;48.510;9.076;2022-08-21T09:44:29;6.68;;;3.50;;
6939;SDS011;3509;48.510;9.076;2022-08-21T09:46:56;4.63;;;3.10;;
6939;SDS011;3509;48.510;9.076;2022-08-21T09:49:29;5.60;;;3.58;;
6939;SDS011;3509;48.510;9.076;2022-08-21T09:51:57;8.57;;;4.07;;
6939;SDS011;3509;48.510;9.076;2022-08-21T09:54:29;7.95;;;3.33;;
6939;SDS011;3509;48.510;9.076;2022-08-21T09:57:11;7.75;;;3.40;;
6939;SDS011;3509;48.510;9.076;2022-08-21T10:00:09;6.70;;;3.80;;
6939;SDS011;3509;48.510;9.076;2022-08-21T10:02:51;5.22;;;3.22;;
6939;SDS011;3509;48.510;9.076;2022-08-21T10:05:19;7.72;;;3.75;;
6939;SDS011;3509;48.510;9.076;2022-08-21T10:07:48;9.63;;;3.60;;
6939;SDS011;3509;48.510;9.076;2022-08-21T10:10:16;5.35;;;3.60;;
6939;SDS011;3509;48.510;9.076;2022-08-21T10:26:25;7.00;;;3.28;;
6939;SDS011;3509;48.510;9.076;2022-08-21T10:31:55;5.57;;;3.45;;
6939;SDS011;3509;48.510;9.076;2022-08-21T10:37:41;8.15;;;3.20;;
6939;SDS011;3509;48.510;9.076;2022-08-21T10:47:48;4.97;;;3.25;;
6939;SDS011;3509;48.510;9.076;2022-08-21T10:50:28;6.68;;;3.10;;
6939;SDS011;3509;48.510;9.076;2022-08-21T10:53:05;5.57;;;3.10;;
6939;SDS011;3509;48.510;9.076;2022-08-21T10:55:55;4.25;;;2.90;;
6939;SDS011;3509;48.510;9.076;2022-08-21T10:58:38;5.78;;;2.75;;
6939;SDS011;3509;48.510;9.076;2022-08-21T11:01:25;4.78;;;2.95;;
6939;SDS011;3509;48.510;9.076;2022-08-21T11:04:12;4.45;;;2.70;;
6939;SDS011;3509;48.510;9.076;2022-08-21T11:06:49;6.68;;;2.80;;
6939;SDS011;3509;48.510;9.076;2022-08-21T11:09:22;6.05;;;3.10;;
6939;SDS011;3509;48.510;9.076;2022-08-21T11:12:03;4.40;;;2.63;;
6939;SDS011;3509;48.510;9.076;2022-08-21T11:17:31;4.25;;;2.45;;
6939;SDS011;3509;48.510;9.076;2022-08-21T11:20:22;5.25;;;3.13;;
6939;SDS011;3509;48.510;9.076;2022-08-21T11:23:02;5.63;;;2.60;;
6939;SDS011;3509;48.510;9.076;2022-08-21T11:25:37;4.38;;;2.67;;
6939;SDS011;3509;48.510;9.076;2022-08-21T11:28:09;5.35;;;2.60;;
6939;SDS011;3509;48.510;9.076;2022-08-21T11:44:59;6.53;;;3.10;;
6939;SDS011;3509;48.510;9.076;2022-08-21T11:50:28;5.10;;;3.20;;
6939;SDS011;3509;48.510;9.076;2022-08-21T11:55:35;6.20;;;3.00;;
6939;SDS011;3509;48.510;9.076;2022-08-21T11:58:12;5.53;;;2.78;;
6939;SDS011;3509;48.510;9.076;2022-08-21T12:01:00;4.97;;;2.88;;
6939;SDS011;3509;48.510;9.076;2022-08-21T12:03:33;4.30;;;2.90;;
6939;SDS011;3509;48.510;9.076;2022-08-21T12:06:05;6.75;;;2.88;;
6939;SDS011;3509;48.510;9.076;2022-08-21T12:13:54;4.90;;;2.60;;
6939;SDS011;3509;48.510;9.076;2022-08-21T12:19:10;4.30;;;2.38;;
6939;SDS011;3509;48.510;9.076;2022-08-21T12:21:51;4.45;;;2.45;;
6939;SDS011;3509;48.510;9.076;2022-08-21T12:24:33;4.07;;;2.40;;
6939;SDS011;3509;48.510;9.076;2022-08-21T12:30:05;7.22;;;2.50;;
6939;SDS011;3509;48.510;9.076;2022-08-21T12:32:44;4.07;;;2.63;;
6939;SDS011;3509;48.510;9.076;2022-08-21T12:35:20;7.57;;;2.90;;
6939;SDS011;3509;48.510;9.076;2022-08-21T12:37:51;5.45;;;2.88;;
6939;SDS011;3509;48.510;9.076;2022-08-21T12:40:28;6.60;;;2.95;;
6939;SDS011;3509;48.510;9.076;2022-08-21T12:42:57;5.22;;;2.88;;
6939;SDS011;3509;48.510;9.076;2022-08-21T12:50:57;3.47;;;2.83;;
6939;SDS011;3509;48.510;9.076;2022-08-21T12:53:58;6.72;;;2.97;;
6939;SDS011;3509;48.510;9.076;2022-08-21T12:56:31;4.93;;;2.72;;
6939;SDS011;3509;48.510;9.076;2022-08-21T12:59:02;4.25;;;3.03;;
6939;SDS011;3509;48.510;9.076;2022-08-21T13:04:01;5.80;;;2.53;;
6939;SDS011;3509;48.510;9.076;2022-08-21T13:06:29;4.00;;;2.60;;
6939;SDS011;3509;48.510;9.076;2022-08-21T13:09:04;3.38;;;2.55;;
6939;SDS011;3509;48.510;9.076;2022-08-21T13:11:32;5.47;;;2.90;;
6939;SDS011;3509;48.510;9.076;2022-08-21T13:13:58;4.65;;;2.58;;
6939;SDS011;3509;48.510;9.076;2022-08-21T13:16:27;8.18;;;2.80;;
6939;SDS011;3509;48.510;9.076;2022-08-21T13:21:26;4.13;;;2.78;;
6939;SDS011;3509;48.510;9.076;2022-08-21T13:26:34;4.97;;;2.70;;
6939;SDS011;3509;48.510;9.076;2022-08-21T13:29:06;5.40;;;2.88;;
6939;SDS011;3509;48.510;9.076;2022-08-21T13:31:36;3.63;;;2.53;;
6939;SDS011;3509;48.510;9.076;2022-08-21T13:34:03;3.08;;;2.40;;
6939;SDS011;3509;48.510;9.076;2022-08-21T13:36:32;6.20;;;2.60;;
6939;SDS011;3509;48.510;9.076;2022-08-21T13:39:01;6.00;;;2.75;;
6939;SDS011;3509;48.510;9.076;2022-08-21T13:41:34;8.57;;;3.28;;
6939;SDS011;3509;48.510;9.076;2022-08-21T13:44:22;6.03;;;2.50;;
6939;SDS011;3509;48.510;9.076;2022-08-21T13:46:59;4.78;;;2.97;;
6939;SDS011;3509;48.510;9.076;2022-08-21T13:49:30;5.90;;;2.50;;
6939;SDS011;3509;48.510;9.076;2022-08-21T13:52:04;4.43;;;2.65;;
6939;SDS011;3509;48.510;9.076;2022-08-21T13:54:39;3.70;;;2.70;;
6939;SDS011;3509;48.510;9.076;2022-08-21T13:57:24;5.72;;;2.30;;
6939;SDS011;3509;48.510;9.076;2022-08-21T14:00:09;4.93;;;2.88;;
6939;SDS011;3509;48.510;9.076;2022-08-21T14:02:39;4.47;;;2.63;;
6939;SDS011;3509;48.510;9.076;2022-08-21T14:05:14;10.73;;;2.70;;
6939;SDS011;3509;48.510;9.076;2022-08-21T14:07:44;6.80;;;2.60;;
6939;SDS011;3509;48.510;9.076;2022-08-21T14:10:12;5.05;;;2.80;;
6939;SDS011;3509;48.510;9.076;2022-08-21T14:12:47;4.20;;;2.63;;
6939;SDS011;3509;48.510;9.076;2022-08-21T14:15:22;4.88;;;2.88;;
6939;SDS011;3509;48.510;9.076;2022-08-21T14:17:54;3.92;;;2.58;;
6939;SDS011;3509;48.510;9.076;2022-08-21T14:20:33;6.20;;;2.78;;
6939;SDS011;3509;48.510;9.076;2022-08-21T14:23:00;4.75;;;2.75;;
6939;SDS011;3509;48.510;9.076;2022-08-21T14:25:27;5.97;;;2.92;;
6939;SDS011;3509;48.510;9.076;2022-08-21T14:30:29;4.30;;;2.30;;
6939;SDS011;3509;48.510;9.076;2022-08-21T14:32:58;3.65;;;2.70;;
6939;SDS011;3509;48.510;9.076;2022-08-21T14:35:24;3.63;;;2.40;;
6939;SDS011;3509;48.510;9.076;2022-08-21T14:37:51;3.78;;;2.78;;
6939;SDS011;3509;48.510;9.076;2022-08-21T14:40:18;3.95;;;2.60;;
6939;SDS011;3509;48.510;9.076;2022-08-21T14:42:46;5.95;;;2.50;;
6939;SDS011;3509;48.510;9.076;2022-08-21T14:45:32;3.65;;;2.47;;
6939;SDS011;3509;48.510;9.076;2022-08-21T14:47:58;3.95;;;2.70;;
6939;SDS011;3509;48.510;9.076;2022-08-21T14:50:24;3.67;;;2.45;;
6939;SDS011;3509;48.510;9.076;2022-08-21T14:52:50;4.20;;;2.67;;
6939;SDS011;3509;48.510;9.076;2022-08-21T14:55:17;6.90;;;2.80;;
6939;SDS011;3509;48.510;9.076;2022-08-21T14:57:47;5.60;;;2.70;;
6939;SDS011;3509;48.510;9.076;2022-08-21T15:00:15;3.45;;;2.53;;
6939;SDS011;3509;48.510;9.076;2022-08-21T15:02:45;6.53;;;2.60;;
6939;SDS011;3509;48.510;9.076;2022-08-21T15:05:11;2.80;;;2.47;;
6939;SDS011;3509;48.510;9.076;2022-08-21T15:07:38;5.20;;;2.55;;
6939;SDS011;3509;48.510;9.076;2022-08-21T15:10:04;2.95;;;2.58;;
6939;SDS011;3509;48.510;9.076;2022-08-21T15:12:31;4.22;;;2.50;;
6939;SDS011;3509;48.510;9.076;2022-08-21T15:14:57;3.50;;;2.53;;
6939;SDS011;3509;48.510;9.076;2022-08-21T15:17:23;3.03;;;2.50;;
6939;SDS011;3509;48.510;9.076;2022-08-21T15:19:48;4.63;;;2.55;;
6939;SDS011;3509;48.510;9.076;2022-08-21T15:22:14;4.88;;;2.88;;
6939;SDS011;3509;48.510;9.076;2022-08-21T15:24:40;3.03;;;2.55;;
6939;SDS011;3509;48.510;9.076;2022-08-21T15:27:06;4.95;;;2.90;;
6939;SDS011;3509;48.510;9.076;2022-08-21T15:29:34;4.80;;;2.67;;
6939;SDS011;3509;48.510;9.076;2022-08-21T15:32:01;5.65;;;2.97;;
6939;SDS011;3509;48.510;9.076;2022-08-21T15:34:40;5.25;;;2.70;;
6939;SDS011;3509;48.510;9.076;2022-08-21T15:37:06;5.93;;;2.63;;
6939;SDS011;3509;48.510;9.076;2022-08-21T15:39:34;3.90;;;2.63;;
6939;SDS011;3509;48.510;9.076;2022-08-21T15:42:00;5.15;;;2.80;;
6939;SDS011;3509;48.510;9.076;2022-08-21T15:44:27;3.47;;;2.42;;
6939;SDS011;3509;48.510;9.076;2022-08-21T15:46:54;4.22;;;2.80;;
6939;SDS011;3509;48.510;9.076;2022-08-21T15:49:20;3.08;;;2.60;;
6939;SDS011;3509;48.510;9.076;2022-08-21T15:51:46;4.03;;;2.70;;
6939;SDS011;3509;48.510;9.076;2022-08-21T15:54:12;4.72;;;2.78;;
6939;SDS011;3509;48.510;9.076;2022-08-21T15:56:39;4.60;;;3.10;;
6939;SDS011;3509;48.510;9.076;2022-08-21T15:59:09;4.97;;;2.72;;
6939;SDS011;3509;48.510;9.076;2022-08-21T16:01:39;4.05;;;2.60;;
6939;SDS011;3509;48.510;9.076;2022-08-21T16:04:05;5.35;;;2.80;;
6939;SDS011;3509;48.510;9.076;2022-08-21T16:06:32;5.07;;;2.60;;
6939;SDS011;3509;48.510;9.076;2022-08-21T16:08:58;5.20;;;2.72;;
6939;SDS011;3509;48.510;9.076;2022-08-21T16:11:24;5.30;;;3.00;;
6939;SDS011;3509;48.510;9.076;2022-08-21T16:13:51;4.82;;;2.72;;
6939;SDS011;3509;48.510;9.076;2022-08-21T16:16:18;5.80;;;2.85;;
6939;SDS011;3509;48.510;9.076;2022-08-21T16:18:46;5.25;;;2.80;;
6939;SDS011;3509;48.510;9.076;2022-08-21T16:21:13;3.47;;;2.47;;
6939;SDS011;3509;48.510;9.076;2022-08-21T16:23:39;5.88;;;2.75;;
6939;SDS011;3509;48.510;9.076;2022-08-21T16:26:06;4.82;;;2.83;;
6939;SDS011;3509;48.510;9.076;2022-08-21T16:28:33;3.78;;;2.97;;
6939;SDS011;3509;48.510;9.076;2022-08-21T16:31:01;3.92;;;2.75;;
6939;SDS011;3509;48.510;9.076;2022-08-21T16:33:35;5.43;;;2.85;;
6939;SDS011;3509;48.510;9.076;2022-08-21T16:36:08;5.80;;;3.15;;
6939;SDS011;3509;48.510;9.076;2022-08-21T16:38:34;7.45;;;2.95;;
6939;SDS011;3509;48.510;9.076;2022-08-21T16:41:02;4.45;;;3.10;;
6939;SDS011;3509;48.510;9.076;2022-08-21T16:43:32;5.57;;;2.53;;
6939;SDS011;3509;48.510;9.076;2022-08-21T16:45:59;4.07;;;2.60;;
6939;SDS011;3509;48.510;9.076;2022-08-21T16:48:25;3.83;;;3.00;;
6939;SDS011;3509;48.510;9.076;2022-08-21T16:50:53;5.78;;;3.00;;